sensor_id;sensor_type;location;lat;lon;timestamp;P1;durP1;ratioP1;P2;durP2;ratioP2
65896;SDS011;52677;50.898;10.854;2023-07-20T00:01:32;10.38;;;6.70;;
65896;SDS011;52677;50.898;10.854;2023-07-20T00:03:33;8.65;;;7.38;;
65896;SDS011;52677;50.898;10.854;2023-07-20T00:05:33;8.27;;;6.70;;
65896;SDS011;52677;50.898;10.854;2023-07-20T00:07:33;7.93;;;6.47;;
65896;SDS011;52677;50.898;10.854;2023-07-20T00:09:34;11.20;;;6.80;;
65896;SDS011;52677;50.898;10.854;2023-07-20T00:11:37;7.40;;;6.70;;
65896;SDS011;52677;50.898;10.854;2023-07-20T00:13:38;7.78;;;6.65;;
65896;SDS011;52677;50.898;10.854;2023-07-20T00:15:38;10.02;;;6.47;;
65896;SDS011;52677;50.898;10.854;2023-07-20T00:17:39;12.48;;;6.70;;
65896;SDS011;52677;50.898;10.854;2023-07-20T00:19:40;8.05;;;6.40;;
65896;SDS011;52677;50.898;10.854;2023-07-20T00:21:40;10.20;;;7.30;;
65896;SDS011;52677;50.898;10.854;2023-07-20T00:23:42;8.73;;;6.53;;
65896;SDS011;52677;50.898;10.854;2023-07-20T00:25:42;14.02;;;7.38;;
65896;SDS011;52677;50.898;10.854;2023-07-20T00:27:43;9.30;;;6.90;;
65896;SDS011;52677;50.898;10.854;2023-07-20T00:29:43;9.18;;;6.50;;
65896;SDS011;52677;50.898;10.854;2023-07-20T00:31:44;8.10;;;6.35;;
65896;SDS011;52677;50.898;10.854;2023-07-20T00:33:44;7.80;;;6.07;;
65896;SDS011;52677;50.898;10.854;2023-07-20T00:35:45;8.75;;;6.15;;
65896;SDS011;52677;50.898;10.854;2023-07-20T00:37:45;9.25;;;6.68;;
65896;SDS011;52677;50.898;10.854;2023-07-20T00:39:45;9.90;;;5.93;;
65896;SDS011;52677;50.898;10.854;2023-07-20T00:41:45;13.07;;;6.70;;
65896;SDS011;52677;50.898;10.854;2023-07-20T00:43:46;9.60;;;7.28;;
65896;SDS011;52677;50.898;10.854;2023-07-20T00:45:46;10.30;;;6.63;;
65896;SDS011;52677;50.898;10.854;2023-07-20T00:47:46;8.85;;;6.32;;
65896;SDS011;52677;50.898;10.854;2023-07-20T00:49:47;9.27;;;6.28;;
65896;SDS011;52677;50.898;10.854;2023-07-20T00:51:48;8.10;;;6.40;;
65896;SDS011;52677;50.898;10.854;2023-07-20T00:53:49;7.95;;;6.25;;
65896;SDS011;52677;50.898;10.854;2023-07-20T00:55:49;6.95;;;5.90;;
65896;SDS011;52677;50.898;10.854;2023-07-20T00:57:49;9.52;;;6.30;;
65896;SDS011;52677;50.898;10.854;2023-07-20T00:59:51;8.75;;;5.53;;
65896;SDS011;52677;50.898;10.854;2023-07-20T01:01:51;7.53;;;5.72;;
65896;SDS011;52677;50.898;10.854;2023-07-20T01:03:52;7.18;;;5.50;;
65896;SDS011;52677;50.898;10.854;2023-07-20T01:06:05;8.38;;;5.97;;
65896;SDS011;52677;50.898;10.854;2023-07-20T01:08:17;8.82;;;5.72;;
65896;SDS011;52677;50.898;10.854;2023-07-20T01:10:27;7.55;;;5.13;;
65896;SDS011;52677;50.898;10.854;2023-07-20T01:12:51;8.25;;;5.60;;
65896;SDS011;52677;50.898;10.854;2023-07-20T01:14:53;9.13;;;6.00;;
65896;SDS011;52677;50.898;10.854;2023-07-20T01:16:54;8.85;;;5.95;;
65896;SDS011;52677;50.898;10.854;2023-07-20T01:18:54;10.88;;;5.72;;
65896;SDS011;52677;50.898;10.854;2023-07-20T01:20:58;7.82;;;5.88;;
65896;SDS011;52677;50.898;10.854;2023-07-20T01:23:22;9.15;;;5.80;;
65896;SDS011;52677;50.898;10.854;2023-07-20T01:25:33;10.57;;;5.60;;
65896;SDS011;52677;50.898;10.854;2023-07-20T01:33:16;7.38;;;5.85;;
65896;SDS011;52677;50.898;10.854;2023-07-20T01:35:19;7.47;;;5.95;;
65896;SDS011;52677;50.898;10.854;2023-07-20T01:37:23;8.55;;;5.75;;
65896;SDS011;52677;50.898;10.854;2023-07-20T01:39:27;6.43;;;5.78;;
65896;SDS011;52677;50.898;10.854;2023-07-20T01:41:29;8.82;;;5.97;;
65896;SDS011;52677;50.898;10.854;2023-07-20T01:43:30;11.52;;;6.25;;
65896;SDS011;52677;50.898;10.854;2023-07-20T01:45:30;9.93;;;6.10;;
65896;SDS011;52677;50.898;10.854;2023-07-20T01:47:30;7.43;;;6.30;;
65896;SDS011;52677;50.898;10.854;2023-07-20T01:49:30;12.85;;;6.15;;
65896;SDS011;52677;50.898;10.854;2023-07-20T01:51:31;7.22;;;6.03;;
65896;SDS011;52677;50.898;10.854;2023-07-20T01:53:31;9.38;;;5.93;;
65896;SDS011;52677;50.898;10.854;2023-07-20T01:55:31;8.10;;;6.25;;
65896;SDS011;52677;50.898;10.854;2023-07-20T01:57:32;6.63;;;5.55;;
65896;SDS011;52677;50.898;10.854;2023-07-20T01:59:32;8.80;;;6.55;;
65896;SDS011;52677;50.898;10.854;2023-07-20T02:01:32;7.80;;;6.40;;
65896;SDS011;52677;50.898;10.854;2023-07-20T02:03:33;7.80;;;6.20;;
65896;SDS011;52677;50.898;10.854;2023-07-20T02:05:33;11.45;;;6.10;;
65896;SDS011;52677;50.898;10.854;2023-07-20T02:07:34;7.65;;;6.43;;
65896;SDS011;52677;50.898;10.854;2023-07-20T02:09:34;14.80;;;6.47;;
65896;SDS011;52677;50.898;10.854;2023-07-20T02:11:34;8.13;;;6.30;;
65896;SDS011;52677;50.898;10.854;2023-07-20T02:13:35;8.20;;;6.30;;
65896;SDS011;52677;50.898;10.854;2023-07-20T02:15:35;7.20;;;5.40;;
65896;SDS011;52677;50.898;10.854;2023-07-20T02:17:35;9.70;;;6.45;;
65896;SDS011;52677;50.898;10.854;2023-07-20T02:19:36;6.75;;;5.35;;
65896;SDS011;52677;50.898;10.854;2023-07-20T02:21:37;9.57;;;5.75;;
65896;SDS011;52677;50.898;10.854;2023-07-20T02:23:37;8.18;;;6.20;;
65896;SDS011;52677;50.898;10.854;2023-07-20T02:25:37;9.77;;;6.10;;
65896;SDS011;52677;50.898;10.854;2023-07-20T02:27:38;11.05;;;6.22;;
65896;SDS011;52677;50.898;10.854;2023-07-20T02:29:40;8.95;;;6.15;;
65896;SDS011;52677;50.898;10.854;2023-07-20T02:31:41;11.75;;;6.50;;
65896;SDS011;52677;50.898;10.854;2023-07-20T02:33:42;10.07;;;6.20;;
65896;SDS011;52677;50.898;10.854;2023-07-20T02:35:43;9.27;;;6.20;;
65896;SDS011;52677;50.898;10.854;2023-07-20T02:37:43;12.80;;;6.53;;
65896;SDS011;52677;50.898;10.854;2023-07-20T02:39:43;8.50;;;6.15;;
65896;SDS011;52677;50.898;10.854;2023-07-20T02:41:44;7.90;;;5.85;;
65896;SDS011;52677;50.898;10.854;2023-07-20T02:43:44;12.35;;;5.30;;
65896;SDS011;52677;50.898;10.854;2023-07-20T02:45:44;6.65;;;5.28;;
65896;SDS011;52677;50.898;10.854;2023-07-20T02:47:45;11.00;;;5.38;;
65896;SDS011;52677;50.898;10.854;2023-07-20T02:49:45;7.70;;;5.80;;
65896;SDS011;52677;50.898;10.854;2023-07-20T02:51:45;7.47;;;5.45;;
65896;SDS011;52677;50.898;10.854;2023-07-20T02:53:46;12.63;;;6.45;;
65896;SDS011;52677;50.898;10.854;2023-07-20T02:55:46;15.82;;;5.68;;
65896;SDS011;52677;50.898;10.854;2023-07-20T02:57:47;7.85;;;5.68;;
65896;SDS011;52677;50.898;10.854;2023-07-20T02:59:47;13.93;;;6.50;;
65896;SDS011;52677;50.898;10.854;2023-07-20T03:01:47;12.23;;;5.38;;
65896;SDS011;52677;50.898;10.854;2023-07-20T03:03:48;9.77;;;5.68;;
65896;SDS011;52677;50.898;10.854;2023-07-20T03:05:48;7.63;;;5.10;;
65896;SDS011;52677;50.898;10.854;2023-07-20T03:07:55;12.05;;;4.80;;
65896;SDS011;52677;50.898;10.854;2023-07-20T03:09:56;8.70;;;5.53;;
65896;SDS011;52677;50.898;10.854;2023-07-20T03:11:56;7.10;;;5.65;;
65896;SDS011;52677;50.898;10.854;2023-07-20T03:13:56;7.03;;;5.60;;
65896;SDS011;52677;50.898;10.854;2023-07-20T03:15:57;10.63;;;5.78;;
65896;SDS011;52677;50.898;10.854;2023-07-20T03:17:57;10.40;;;5.40;;
65896;SDS011;52677;50.898;10.854;2023-07-20T03:19:58;14.40;;;5.32;;
65896;SDS011;52677;50.898;10.854;2023-07-20T03:22:00;14.13;;;4.93;;
65896;SDS011;52677;50.898;10.854;2023-07-20T03:24:01;7.93;;;4.72;;
65896;SDS011;52677;50.898;10.854;2023-07-20T03:26:01;10.18;;;5.22;;
65896;SDS011;52677;50.898;10.854;2023-07-20T03:28:01;7.65;;;5.40;;
65896;SDS011;52677;50.898;10.854;2023-07-20T03:30:01;10.57;;;6.05;;
65896;SDS011;52677;50.898;10.854;2023-07-20T03:32:02;7.53;;;5.43;;
65896;SDS011;52677;50.898;10.854;2023-07-20T03:34:03;11.07;;;5.55;;
65896;SDS011;52677;50.898;10.854;2023-07-20T03:36:03;8.43;;;5.80;;
65896;SDS011;52677;50.898;10.854;2023-07-20T03:38:04;14.63;;;6.38;;
65896;SDS011;52677;50.898;10.854;2023-07-20T03:40:04;13.75;;;5.95;;
65896;SDS011;52677;50.898;10.854;2023-07-20T03:42:07;7.22;;;5.32;;
65896;SDS011;52677;50.898;10.854;2023-07-20T03:44:07;10.35;;;5.28;;
65896;SDS011;52677;50.898;10.854;2023-07-20T03:46:08;11.93;;;6.95;;
65896;SDS011;52677;50.898;10.854;2023-07-20T03:48:08;7.35;;;5.43;;
65896;SDS011;52677;50.898;10.854;2023-07-20T03:50:09;7.05;;;5.28;;
65896;SDS011;52677;50.898;10.854;2023-07-20T03:52:09;7.43;;;5.88;;
65896;SDS011;52677;50.898;10.854;2023-07-20T03:54:10;11.02;;;5.65;;
65896;SDS011;52677;50.898;10.854;2023-07-20T03:56:10;9.82;;;6.03;;
65896;SDS011;52677;50.898;10.854;2023-07-20T03:58:10;9.13;;;5.38;;
65896;SDS011;52677;50.898;10.854;2023-07-20T04:00:11;18.95;;;6.97;;
65896;SDS011;52677;50.898;10.854;2023-07-20T04:02:12;14.27;;;6.47;;
65896;SDS011;52677;50.898;10.854;2023-07-20T04:04:13;9.43;;;5.38;;
65896;SDS011;52677;50.898;10.854;2023-07-20T04:06:15;9.75;;;5.60;;
65896;SDS011;52677;50.898;10.854;2023-07-20T04:08:17;13.95;;;5.80;;
65896;SDS011;52677;50.898;10.854;2023-07-20T04:10:18;11.23;;;6.53;;
65896;SDS011;52677;50.898;10.854;2023-07-20T04:12:19;11.02;;;6.50;;
65896;SDS011;52677;50.898;10.854;2023-07-20T04:14:19;14.07;;;7.50;;
65896;SDS011;52677;50.898;10.854;2023-07-20T04:16:19;11.38;;;6.10;;
65896;SDS011;52677;50.898;10.854;2023-07-20T04:18:20;9.13;;;5.95;;
65896;SDS011;52677;50.898;10.854;2023-07-20T04:20:20;14.48;;;7.25;;
65896;SDS011;52677;50.898;10.854;2023-07-20T04:22:21;9.57;;;6.10;;
65896;SDS011;52677;50.898;10.854;2023-07-20T04:24:21;6.30;;;5.45;;
65896;SDS011;52677;50.898;10.854;2023-07-20T04:26:22;9.73;;;5.70;;
65896;SDS011;52677;50.898;10.854;2023-07-20T04:28:22;17.55;;;6.25;;
65896;SDS011;52677;50.898;10.854;2023-07-20T04:30:22;6.80;;;5.15;;
65896;SDS011;52677;50.898;10.854;2023-07-20T04:32:23;10.20;;;5.72;;
65896;SDS011;52677;50.898;10.854;2023-07-20T04:34:23;8.52;;;5.88;;
65896;SDS011;52677;50.898;10.854;2023-07-20T04:36:23;15.65;;;5.90;;
65896;SDS011;52677;50.898;10.854;2023-07-20T04:38:24;14.65;;;5.97;;
65896;SDS011;52677;50.898;10.854;2023-07-20T04:40:24;10.00;;;5.90;;
65896;SDS011;52677;50.898;10.854;2023-07-20T04:42:24;11.43;;;6.10;;
65896;SDS011;52677;50.898;10.854;2023-07-20T04:44:25;20.85;;;6.78;;
65896;SDS011;52677;50.898;10.854;2023-07-20T04:46:25;9.15;;;6.18;;
65896;SDS011;52677;50.898;10.854;2023-07-20T04:48:25;15.80;;;6.93;;
65896;SDS011;52677;50.898;10.854;2023-07-20T04:50:26;13.40;;;6.18;;
65896;SDS011;52677;50.898;10.854;2023-07-20T04:52:26;9.50;;;5.75;;
65896;SDS011;52677;50.898;10.854;2023-07-20T04:54:26;12.38;;;6.38;;
65896;SDS011;52677;50.898;10.854;2023-07-20T04:56:27;11.57;;;5.68;;
65896;SDS011;52677;50.898;10.854;2023-07-20T04:58:27;10.63;;;6.13;;
65896;SDS011;52677;50.898;10.854;2023-07-20T05:00:27;11.80;;;5.95;;
65896;SDS011;52677;50.898;10.854;2023-07-20T05:02:28;14.50;;;5.97;;
65896;SDS011;52677;50.898;10.854;2023-07-20T05:04:28;13.80;;;6.05;;
65896;SDS011;52677;50.898;10.854;2023-07-20T05:06:28;11.73;;;6.15;;
65896;SDS011;52677;50.898;10.854;2023-07-20T05:08:29;15.88;;;7.32;;
65896;SDS011;52677;50.898;10.854;2023-07-20T05:10:29;10.32;;;6.25;;
65896;SDS011;52677;50.898;10.854;2023-07-20T05:12:29;8.75;;;6.18;;
65896;SDS011;52677;50.898;10.854;2023-07-20T05:14:30;10.43;;;5.78;;
65896;SDS011;52677;50.898;10.854;2023-07-20T05:16:30;11.13;;;7.72;;
65896;SDS011;52677;50.898;10.854;2023-07-20T05:18:30;12.55;;;7.00;;
65896;SDS011;52677;50.898;10.854;2023-07-20T05:20:31;10.65;;;6.60;;
65896;SDS011;52677;50.898;10.854;2023-07-20T05:22:33;9.77;;;5.95;;
65896;SDS011;52677;50.898;10.854;2023-07-20T05:24:33;9.77;;;6.30;;
65896;SDS011;52677;50.898;10.854;2023-07-20T05:26:33;12.27;;;7.20;;
65896;SDS011;52677;50.898;10.854;2023-07-20T05:28:34;11.02;;;6.70;;
65896;SDS011;52677;50.898;10.854;2023-07-20T05:30:34;9.70;;;6.90;;
65896;SDS011;52677;50.898;10.854;2023-07-20T05:32:35;14.07;;;7.18;;
65896;SDS011;52677;50.898;10.854;2023-07-20T05:34:35;11.05;;;7.05;;
65896;SDS011;52677;50.898;10.854;2023-07-20T05:36:36;9.93;;;6.43;;
65896;SDS011;52677;50.898;10.854;2023-07-20T05:38:37;7.85;;;5.93;;
65896;SDS011;52677;50.898;10.854;2023-07-20T05:40:38;10.88;;;6.78;;
65896;SDS011;52677;50.898;10.854;2023-07-20T05:42:40;8.65;;;7.00;;
65896;SDS011;52677;50.898;10.854;2023-07-20T05:44:40;10.50;;;6.75;;
65896;SDS011;52677;50.898;10.854;2023-07-20T05:46:41;11.13;;;7.15;;
65896;SDS011;52677;50.898;10.854;2023-07-20T05:48:41;12.73;;;6.78;;
65896;SDS011;52677;50.898;10.854;2023-07-20T05:50:42;12.98;;;7.45;;
65896;SDS011;52677;50.898;10.854;2023-07-20T05:52:43;7.68;;;5.82;;
65896;SDS011;52677;50.898;10.854;2023-07-20T05:54:44;6.90;;;6.20;;
65896;SDS011;52677;50.898;10.854;2023-07-20T05:56:45;8.10;;;6.63;;
65896;SDS011;52677;50.898;10.854;2023-07-20T05:58:45;10.98;;;6.60;;
65896;SDS011;52677;50.898;10.854;2023-07-20T06:00:49;12.45;;;7.32;;
65896;SDS011;52677;50.898;10.854;2023-07-20T06:02:50;6.70;;;6.00;;
65896;SDS011;52677;50.898;10.854;2023-07-20T06:04:52;7.90;;;6.15;;
65896;SDS011;52677;50.898;10.854;2023-07-20T06:06:52;8.30;;;6.97;;
65896;SDS011;52677;50.898;10.854;2023-07-20T06:08:52;6.70;;;6.00;;
65896;SDS011;52677;50.898;10.854;2023-07-20T06:10:53;8.55;;;5.90;;
65896;SDS011;52677;50.898;10.854;2023-07-20T06:12:53;11.65;;;5.70;;
65896;SDS011;52677;50.898;10.854;2023-07-20T06:14:55;5.90;;;5.30;;
65896;SDS011;52677;50.898;10.854;2023-07-20T06:16:55;6.13;;;4.90;;
65896;SDS011;52677;50.898;10.854;2023-07-20T06:18:55;7.65;;;5.25;;
65896;SDS011;52677;50.898;10.854;2023-07-20T06:20:56;5.63;;;5.03;;
65896;SDS011;52677;50.898;10.854;2023-07-20T06:22:56;6.43;;;5.50;;
65896;SDS011;52677;50.898;10.854;2023-07-20T06:24:57;8.00;;;5.95;;
65896;SDS011;52677;50.898;10.854;2023-07-20T06:26:57;6.40;;;5.40;;
65896;SDS011;52677;50.898;10.854;2023-07-20T06:28:57;7.00;;;5.03;;
65896;SDS011;52677;50.898;10.854;2023-07-20T06:31:01;7.45;;;5.38;;
65896;SDS011;52677;50.898;10.854;2023-07-20T06:33:04;5.65;;;5.13;;
65896;SDS011;52677;50.898;10.854;2023-07-20T06:35:05;7.68;;;6.35;;
65896;SDS011;52677;50.898;10.854;2023-07-20T06:37:06;5.82;;;5.22;;
65896;SDS011;52677;50.898;10.854;2023-07-20T06:39:06;6.93;;;4.75;;
65896;SDS011;52677;50.898;10.854;2023-07-20T06:41:06;7.45;;;4.70;;
65896;SDS011;52677;50.898;10.854;2023-07-20T06:43:07;6.18;;;4.57;;
65896;SDS011;52677;50.898;10.854;2023-07-20T06:45:07;5.13;;;4.43;;
65896;SDS011;52677;50.898;10.854;2023-07-20T06:47:08;11.93;;;5.60;;
65896;SDS011;52677;50.898;10.854;2023-07-20T06:49:09;8.13;;;4.60;;
65896;SDS011;52677;50.898;10.854;2023-07-20T06:51:09;5.10;;;4.38;;
65896;SDS011;52677;50.898;10.854;2023-07-20T06:53:09;6.93;;;4.47;;
65896;SDS011;52677;50.898;10.854;2023-07-20T06:55:10;7.70;;;4.50;;
65896;SDS011;52677;50.898;10.854;2023-07-20T06:57:10;8.73;;;5.55;;
65896;SDS011;52677;50.898;10.854;2023-07-20T06:59:10;8.23;;;4.32;;
65896;SDS011;52677;50.898;10.854;2023-07-20T07:01:10;4.63;;;3.85;;
65896;SDS011;52677;50.898;10.854;2023-07-20T07:03:11;6.63;;;4.30;;
65896;SDS011;52677;50.898;10.854;2023-07-20T07:05:11;7.63;;;4.38;;
65896;SDS011;52677;50.898;10.854;2023-07-20T07:07:13;6.53;;;4.40;;
65896;SDS011;52677;50.898;10.854;2023-07-20T07:09:14;6.18;;;4.43;;
65896;SDS011;52677;50.898;10.854;2023-07-20T07:11:14;9.10;;;4.80;;
65896;SDS011;52677;50.898;10.854;2023-07-20T07:13:15;5.22;;;3.90;;
65896;SDS011;52677;50.898;10.854;2023-07-20T07:15:15;5.95;;;4.22;;
65896;SDS011;52677;50.898;10.854;2023-07-20T07:17:15;5.45;;;4.00;;
65896;SDS011;52677;50.898;10.854;2023-07-20T07:19:16;7.22;;;4.07;;
65896;SDS011;52677;50.898;10.854;2023-07-20T07:21:16;14.85;;;5.80;;
65896;SDS011;52677;50.898;10.854;2023-07-20T07:23:17;6.50;;;4.18;;
65896;SDS011;52677;50.898;10.854;2023-07-20T07:25:17;5.13;;;4.30;;
65896;SDS011;52677;50.898;10.854;2023-07-20T07:27:17;5.85;;;4.75;;
65896;SDS011;52677;50.898;10.854;2023-07-20T07:29:18;6.60;;;4.57;;
65896;SDS011;52677;50.898;10.854;2023-07-20T07:31:18;5.15;;;4.35;;
65896;SDS011;52677;50.898;10.854;2023-07-20T07:33:18;6.32;;;5.13;;
65896;SDS011;52677;50.898;10.854;2023-07-20T07:35:19;5.63;;;5.13;;
65896;SDS011;52677;50.898;10.854;2023-07-20T07:37:19;6.47;;;4.95;;
65896;SDS011;52677;50.898;10.854;2023-07-20T07:39:19;6.65;;;5.00;;
65896;SDS011;52677;50.898;10.854;2023-07-20T07:41:20;7.28;;;5.30;;
65896;SDS011;52677;50.898;10.854;2023-07-20T07:43:21;5.90;;;4.30;;
65896;SDS011;52677;50.898;10.854;2023-07-20T07:45:21;5.47;;;4.90;;
65896;SDS011;52677;50.898;10.854;2023-07-20T07:47:21;4.50;;;3.88;;
65896;SDS011;52677;50.898;10.854;2023-07-20T07:49:22;4.22;;;3.83;;
65896;SDS011;52677;50.898;10.854;2023-07-20T07:51:22;6.55;;;3.97;;
65896;SDS011;52677;50.898;10.854;2023-07-20T07:53:23;3.80;;;3.38;;
65896;SDS011;52677;50.898;10.854;2023-07-20T07:55:25;4.72;;;3.72;;
65896;SDS011;52677;50.898;10.854;2023-07-20T07:57:28;11.63;;;4.40;;
65896;SDS011;52677;50.898;10.854;2023-07-20T07:59:29;6.88;;;3.90;;
65896;SDS011;52677;50.898;10.854;2023-07-20T08:01:31;6.32;;;4.03;;
65896;SDS011;52677;50.898;10.854;2023-07-20T08:03:31;7.75;;;4.22;;
65896;SDS011;52677;50.898;10.854;2023-07-20T08:05:31;6.88;;;4.35;;
65896;SDS011;52677;50.898;10.854;2023-07-20T08:07:35;6.93;;;4.25;;
65896;SDS011;52677;50.898;10.854;2023-07-20T08:09:38;4.70;;;3.63;;
65896;SDS011;52677;50.898;10.854;2023-07-20T08:11:39;4.43;;;3.67;;
65896;SDS011;52677;50.898;10.854;2023-07-20T08:13:39;4.95;;;4.07;;
65896;SDS011;52677;50.898;10.854;2023-07-20T08:15:45;6.30;;;4.38;;
65896;SDS011;52677;50.898;10.854;2023-07-20T08:17:48;3.78;;;3.38;;
65896;SDS011;52677;50.898;10.854;2023-07-20T08:21:51;3.97;;;3.37;;
65896;SDS011;52677;50.898;10.854;2023-07-20T08:23:51;7.40;;;3.75;;
65896;SDS011;52677;50.898;10.854;2023-07-20T08:25:52;4.80;;;3.42;;
65896;SDS011;52677;50.898;10.854;2023-07-20T08:27:52;4.53;;;3.90;;
65896;SDS011;52677;50.898;10.854;2023-07-20T08:29:52;5.43;;;3.78;;
65896;SDS011;52677;50.898;10.854;2023-07-20T08:31:53;4.30;;;3.50;;
65896;SDS011;52677;50.898;10.854;2023-07-20T08:33:53;5.35;;;3.15;;
65896;SDS011;52677;50.898;10.854;2023-07-20T08:35:53;4.20;;;2.95;;
65896;SDS011;52677;50.898;10.854;2023-07-20T08:37:55;7.82;;;3.65;;
65896;SDS011;52677;50.898;10.854;2023-07-20T08:39:55;5.60;;;3.13;;
65896;SDS011;52677;50.898;10.854;2023-07-20T08:41:56;5.07;;;3.20;;
65896;SDS011;52677;50.898;10.854;2023-07-20T08:45:58;4.30;;;2.95;;
65896;SDS011;52677;50.898;10.854;2023-07-20T08:47:59;4.07;;;2.90;;
65896;SDS011;52677;50.898;10.854;2023-07-20T08:50:00;3.67;;;3.07;;
65896;SDS011;52677;50.898;10.854;2023-07-20T08:52:02;5.85;;;2.63;;
65896;SDS011;52677;50.898;10.854;2023-07-20T08:54:03;3.92;;;3.22;;
65896;SDS011;52677;50.898;10.854;2023-07-20T08:56:04;3.03;;;2.70;;
65896;SDS011;52677;50.898;10.854;2023-07-20T08:58:05;4.63;;;3.10;;
65896;SDS011;52677;50.898;10.854;2023-07-20T09:00:10;3.78;;;2.65;;
65896;SDS011;52677;50.898;10.854;2023-07-20T09:04:16;10.63;;;3.20;;
65896;SDS011;52677;50.898;10.854;2023-07-20T09:06:16;4.97;;;3.10;;
65896;SDS011;52677;50.898;10.854;2023-07-20T09:08:16;7.93;;;3.38;;
65896;SDS011;52677;50.898;10.854;2023-07-20T09:10:17;4.60;;;2.97;;
65896;SDS011;52677;50.898;10.854;2023-07-20T09:12:17;4.25;;;3.40;;
65896;SDS011;52677;50.898;10.854;2023-07-20T09:14:17;4.85;;;2.85;;
65896;SDS011;52677;50.898;10.854;2023-07-20T09:16:18;4.80;;;3.22;;
65896;SDS011;52677;50.898;10.854;2023-07-20T09:18:25;6.38;;;3.25;;
65896;SDS011;52677;50.898;10.854;2023-07-20T09:20:30;3.90;;;3.20;;
65896;SDS011;52677;50.898;10.854;2023-07-20T09:22:32;5.00;;;3.15;;
65896;SDS011;52677;50.898;10.854;2023-07-20T09:24:32;6.13;;;3.47;;
65896;SDS011;52677;50.898;10.854;2023-07-20T09:26:35;5.90;;;3.90;;
65896;SDS011;52677;50.898;10.854;2023-07-20T09:28:51;5.05;;;3.50;;
65896;SDS011;52677;50.898;10.854;2023-07-20T09:30:53;3.20;;;2.88;;
65896;SDS011;52677;50.898;10.854;2023-07-20T09:32:55;4.32;;;2.70;;
65896;SDS011;52677;50.898;10.854;2023-07-20T09:34:55;4.03;;;2.90;;
65896;SDS011;52677;50.898;10.854;2023-07-20T09:36:56;4.72;;;2.92;;
65896;SDS011;52677;50.898;10.854;2023-07-20T09:38:56;4.32;;;3.10;;
65896;SDS011;52677;50.898;10.854;2023-07-20T09:40:58;4.72;;;2.95;;
65896;SDS011;52677;50.898;10.854;2023-07-20T09:42:59;4.93;;;3.17;;
65896;SDS011;52677;50.898;10.854;2023-07-20T09:45:06;5.07;;;3.03;;
65896;SDS011;52677;50.898;10.854;2023-07-20T09:47:07;4.53;;;3.30;;
65896;SDS011;52677;50.898;10.854;2023-07-20T09:49:08;6.80;;;3.55;;
65896;SDS011;52677;50.898;10.854;2023-07-20T09:51:09;4.43;;;3.38;;
65896;SDS011;52677;50.898;10.854;2023-07-20T09:53:12;7.47;;;3.38;;
65896;SDS011;52677;50.898;10.854;2023-07-20T09:55:14;5.68;;;3.67;;
65896;SDS011;52677;50.898;10.854;2023-07-20T09:57:14;4.20;;;3.80;;
65896;SDS011;52677;50.898;10.854;2023-07-20T09:59:15;6.18;;;4.18;;
65896;SDS011;52677;50.898;10.854;2023-07-20T10:01:18;5.20;;;3.67;;
65896;SDS011;52677;50.898;10.854;2023-07-20T10:03:22;4.97;;;3.60;;
65896;SDS011;52677;50.898;10.854;2023-07-20T10:05:28;4.78;;;4.03;;
65896;SDS011;52677;50.898;10.854;2023-07-20T10:07:38;5.30;;;3.88;;
65896;SDS011;52677;50.898;10.854;2023-07-20T10:09:43;4.40;;;3.58;;
65896;SDS011;52677;50.898;10.854;2023-07-20T10:11:46;8.50;;;4.40;;
65896;SDS011;52677;50.898;10.854;2023-07-20T10:13:51;3.47;;;2.78;;
65896;SDS011;52677;50.898;10.854;2023-07-20T10:15:54;3.92;;;3.28;;
65896;SDS011;52677;50.898;10.854;2023-07-20T10:20:21;4.20;;;2.50;;
65896;SDS011;52677;50.898;10.854;2023-07-20T10:22:25;3.00;;;2.42;;
65896;SDS011;52677;50.898;10.854;2023-07-20T10:24:27;1.90;;;1.80;;
65896;SDS011;52677;50.898;10.854;2023-07-20T10:26:28;3.15;;;1.70;;
65896;SDS011;52677;50.898;10.854;2023-07-20T10:28:28;3.92;;;1.90;;
65896;SDS011;52677;50.898;10.854;2023-07-20T10:30:29;2.40;;;2.00;;
65896;SDS011;52677;50.898;10.854;2023-07-20T10:32:29;1.80;;;1.70;;
65896;SDS011;52677;50.898;10.854;2023-07-20T10:34:30;2.85;;;2.00;;
65896;SDS011;52677;50.898;10.854;2023-07-20T10:36:31;3.42;;;2.03;;
65896;SDS011;52677;50.898;10.854;2023-07-20T10:38:38;2.33;;;1.90;;
65896;SDS011;52677;50.898;10.854;2023-07-20T10:40:43;1.90;;;1.70;;
65896;SDS011;52677;50.898;10.854;2023-07-20T10:42:57;2.05;;;1.67;;
65896;SDS011;52677;50.898;10.854;2023-07-20T10:45:00;3.75;;;1.73;;
65896;SDS011;52677;50.898;10.854;2023-07-20T10:47:02;2.40;;;2.03;;
65896;SDS011;52677;50.898;10.854;2023-07-20T10:49:06;3.50;;;2.38;;
65896;SDS011;52677;50.898;10.854;2023-07-20T10:53:10;4.75;;;2.85;;
65896;SDS011;52677;50.898;10.854;2023-07-20T10:55:15;4.97;;;2.53;;
65896;SDS011;52677;50.898;10.854;2023-07-20T10:57:50;12.25;;;3.97;;
65896;SDS011;52677;50.898;10.854;2023-07-20T10:59:43;5.63;;;3.10;;
65896;SDS011;52677;50.898;10.854;2023-07-20T11:01:47;9.40;;;3.05;;
65896;SDS011;52677;50.898;10.854;2023-07-20T11:03:49;3.78;;;3.00;;
65896;SDS011;52677;50.898;10.854;2023-07-20T11:05:50;4.75;;;2.90;;
65896;SDS011;52677;50.898;10.854;2023-07-20T11:07:51;3.80;;;3.15;;
65896;SDS011;52677;50.898;10.854;2023-07-20T11:09:51;2.72;;;2.53;;
65896;SDS011;52677;50.898;10.854;2023-07-20T11:11:51;5.18;;;3.10;;
65896;SDS011;52677;50.898;10.854;2023-07-20T11:14:22;3.58;;;3.22;;
65896;SDS011;52677;50.898;10.854;2023-07-20T11:16:37;5.03;;;3.58;;
65896;SDS011;52677;50.898;10.854;2023-07-20T11:18:44;4.40;;;3.95;;
65896;SDS011;52677;50.898;10.854;2023-07-20T11:20:44;3.72;;;3.28;;
65896;SDS011;52677;50.898;10.854;2023-07-20T11:22:50;4.53;;;3.15;;
65896;SDS011;52677;50.898;10.854;2023-07-20T11:24:57;5.07;;;3.40;;
65896;SDS011;52677;50.898;10.854;2023-07-20T11:26:58;3.63;;;3.08;;
65896;SDS011;52677;50.898;10.854;2023-07-20T11:28:59;3.97;;;3.25;;
65896;SDS011;52677;50.898;10.854;2023-07-20T11:31:00;4.60;;;2.85;;
65896;SDS011;52677;50.898;10.854;2023-07-20T11:33:00;6.70;;;3.10;;
65896;SDS011;52677;50.898;10.854;2023-07-20T11:35:00;5.30;;;3.25;;
65896;SDS011;52677;50.898;10.854;2023-07-20T11:37:01;4.45;;;3.22;;
65896;SDS011;52677;50.898;10.854;2023-07-20T11:41:04;4.30;;;2.97;;
65896;SDS011;52677;50.898;10.854;2023-07-20T11:43:05;4.43;;;3.42;;
65896;SDS011;52677;50.898;10.854;2023-07-20T11:45:06;3.35;;;2.90;;
65896;SDS011;52677;50.898;10.854;2023-07-20T11:47:09;3.10;;;2.80;;
65896;SDS011;52677;50.898;10.854;2023-07-20T11:49:12;4.40;;;3.28;;
65896;SDS011;52677;50.898;10.854;2023-07-20T11:51:14;3.22;;;2.92;;
65896;SDS011;52677;50.898;10.854;2023-07-20T11:53:16;3.28;;;2.97;;
65896;SDS011;52677;50.898;10.854;2023-07-20T11:55:17;3.03;;;2.72;;
65896;SDS011;52677;50.898;10.854;2023-07-20T11:57:19;6.82;;;3.28;;
65896;SDS011;52677;50.898;10.854;2023-07-20T11:59:20;4.10;;;2.30;;
65896;SDS011;52677;50.898;10.854;2023-07-20T12:01:20;5.43;;;2.42;;
65896;SDS011;52677;50.898;10.854;2023-07-20T12:03:20;3.42;;;1.92;;
65896;SDS011;52677;50.898;10.854;2023-07-20T12:05:22;6.13;;;3.20;;
65896;SDS011;52677;50.898;10.854;2023-07-20T12:07:23;3.05;;;2.70;;
65896;SDS011;52677;50.898;10.854;2023-07-20T12:09:25;2.38;;;2.17;;
65896;SDS011;52677;50.898;10.854;2023-07-20T12:11:32;3.70;;;3.00;;
65896;SDS011;52677;50.898;10.854;2023-07-20T12:13:37;4.47;;;2.75;;
65896;SDS011;52677;50.898;10.854;2023-07-20T12:15:38;3.53;;;2.92;;
65896;SDS011;52677;50.898;10.854;2023-07-20T12:17:41;2.72;;;2.40;;